Time;durP1;ratioP1;P1;durP2;ratioP2;P2;SDS_P1;SDS_P2;PMS_P1;PMS_P2;Temp;Humidity;BMP_temperature;BMP_pressure;BME280_temperature;BME280_humidity;BME280_pressure;Samples;Min_cycle;Max_cycle;Signal;HPM_P1;HPM_P2
2024/03/07 00:02:20;;;;;;;63.65;33.20;;;5.60;99.90;;;;;;5010197;28;20038;-66
2024/03/07 00:04:46;;;;;;;66.18;35.30;;;5.60;99.90;;;;;;5027656;28;20044;-64
2024/03/07 00:07:12;;;;;;;70.07;36.58;;;5.60;99.90;;;;;;5026209;28;20092;-64
2024/03/07 00:09:38;;;;;;;70.25;35.80;;;5.60;99.90;;;;;;5012426;28;20432;-65
2024/03/07 00:12:05;;;;;;;70.10;36.08;;;5.60;99.90;;;;;;5027525;28;20047;-65
2024/03/07 00:14:35;;;;;;;73.30;38.03;;;5.60;99.90;;;;;;5011794;28;20050;-65
2024/03/07 00:17:02;;;;;;;67.57;34.50;;;5.50;99.90;;;;;;5011935;28;20533;-65
2024/03/07 00:19:29;;;;;;;62.13;33.33;;;5.50;99.90;;;;;;5023788;28;20044;-66
2024/03/07 00:21:56;;;;;;;64.32;31.85;;;5.50;99.90;;;;;;5014877;28;20053;-65
2024/03/07 00:24:22;;;;;;;56.53;30.50;;;5.50;99.90;;;;;;5021316;28;20096;-65
2024/03/07 00:26:51;;;;;;;61.03;32.05;;;5.70;99.90;;;;;;5008638;28;20153;-64
2024/03/07 00:29:20;;;;;;;57.17;30.83;;;5.50;99.90;;;;;;5022254;28;20037;-65
2024/03/07 00:31:47;;;;;;;61.75;32.83;;;5.50;99.90;;;;;;5028476;28;20041;-64
2024/03/07 00:34:16;;;;;;;59.72;31.75;;;5.60;99.90;;;;;;5012898;28;20052;-66
2024/03/07 00:36:44;;;;;;;56.22;30.52;;;5.50;99.90;;;;;;5032268;28;20432;-64
2024/03/07 00:39:13;;;;;;;58.83;30.42;;;5.50;99.90;;;;;;5032189;28;20033;-65
2024/03/07 00:41:39;;;;;;;57.00;30.38;;;5.50;99.90;;;;;;5031696;28;20037;-65
2024/03/07 00:44:06;;;;;;;56.17;30.55;;;5.50;99.90;;;;;;5032207;28;20041;-65
2024/03/07 00:46:32;;;;;;;55.53;30.00;;;5.50;99.90;;;;;;5026139;28;20045;-65
2024/03/07 00:48:57;;;;;;;56.05;30.65;;;5.40;99.90;;;;;;5028219;28;20605;-65
2024/03/07 00:51:23;;;;;;;56.38;30.02;;;5.40;99.90;;;;;;5012590;28;20116;-65
2024/03/07 00:53:49;;;;;;;64.88;32.20;;;5.40;99.90;;;;;;5025911;28;20486;-63
2024/03/07 00:56:14;;;;;;;58.03;30.27;;;5.40;99.90;;;;;;5030834;28;20159;-63
2024/03/07 00:58:40;;;;;;;58.90;30.92;;;5.40;99.90;;;;;;5031948;28;20120;-63
2024/03/07 01:01:06;;;;;;;51.45;30.20;;;5.40;99.90;;;;;;5030542;28;20041;-64
2024/03/07 01:03:32;;;;;;;59.88;30.17;;;5.40;99.90;;;;;;5009923;28;20443;-63
2024/03/07 01:05:57;;;;;;;57.72;30.52;;;5.50;99.90;;;;;;5026716;28;20033;-65
2024/03/07 01:08:23;;;;;;;58.35;30.45;;;5.40;99.90;;;;;;5027114;28;20441;-63
2024/03/07 01:10:48;;;;;;;61.05;29.90;;;5.40;99.90;;;;;;5013498;28;20038;-63
2024/03/07 01:13:19;;;;;;;57.00;29.98;;;5.40;99.90;;;;;;5027703;28;20037;-64
2024/03/07 01:15:45;;;;;;;58.35;29.08;;;5.40;99.90;;;;;;5031656;28;20091;-64
2024/03/07 01:18:11;;;;;;;53.95;28.85;;;5.40;99.90;;;;;;5020793;28;20458;-63
2024/03/07 01:20:36;;;;;;;57.55;30.52;;;5.40;99.90;;;;;;5018847;28;20033;-62
2024/03/07 01:23:02;;;;;;;49.83;28.63;;;5.40;99.90;;;;;;5024822;28;20091;-65
2024/03/07 01:25:28;;;;;;;53.85;29.92;;;5.40;99.90;;;;;;5022304;28;20039;-63
2024/03/07 01:27:53;;;;;;;55.55;29.05;;;5.40;99.90;;;;;;5028224;28;20352;-63
2024/03/07 01:30:19;;;;;;;56.25;28.45;;;5.40;99.90;;;;;;5013078;28;20085;-63
2024/03/07 01:32:44;;;;;;;57.13;29.33;;;5.40;99.90;;;;;;5030781;28;20033;-64
2024/03/07 01:35:10;;;;;;;52.05;28.00;;;5.40;99.90;;;;;;5021960;28;20034;-67
2024/03/07 01:37:36;;;;;;;52.00;27.85;;;5.30;99.90;;;;;;5031109;28;20053;-63
2024/03/07 01:40:05;;;;;;;49.53;28.17;;;5.30;99.90;;;;;;5024646;28;20038;-64
2024/03/07 01:42:30;;;;;;;48.22;26.50;;;5.30;99.90;;;;;;5026335;28;20050;-67
2024/03/07 01:44:56;;;;;;;50.20;27.17;;;5.30;99.90;;;;;;5011908;28;20135;-66
2024/03/07 01:47:22;;;;;;;51.25;27.02;;;5.30;99.90;;;;;;5029550;28;20083;-63
2024/03/07 01:49:48;;;;;;;50.83;27.65;;;5.30;99.90;;;;;;5023975;28;22128;-64
2024/03/07 01:52:14;;;;;;;46.67;26.90;;;5.20;99.90;;;;;;5030276;28;20166;-63
2024/03/07 01:54:40;;;;;;;44.00;24.55;;;5.20;99.90;;;;;;5031361;28;20079;-64
2024/03/07 01:57:06;;;;;;;46.58;25.02;;;5.20;99.90;;;;;;5024016;28;20072;-64
2024/03/07 01:59:33;;;;;;;39.58;23.75;;;5.20;99.90;;;;;;5004088;28;20182;-63
2024/03/07 02:02:01;;;;;;;48.03;25.25;;;5.20;99.90;;;;;;5013288;28;20049;-63
2024/03/07 02:04:26;;;;;;;46.67;25.02;;;5.40;99.90;;;;;;5023274;28;20040;-63
2024/03/07 02:06:53;;;;;;;41.13;24.38;;;5.20;99.90;;;;;;5010252;28;20053;-64
2024/03/07 02:09:19;;;;;;;45.63;23.73;;;5.20;99.90;;;;;;5021162;28;20060;-63
2024/03/07 02:11:48;;;;;;;44.75;23.88;;;5.20;99.90;;;;;;5029689;28;20666;-64
2024/03/07 02:14:14;;;;;;;40.10;23.92;;;5.10;99.90;;;;;;5024757;28;20041;-64
2024/03/07 02:16:40;;;;;;;39.33;23.55;;;5.10;99.90;;;;;;5030591;28;20485;-64
2024/03/07 02:19:06;;;;;;;41.22;23.15;;;5.10;99.90;;;;;;5024573;28;20104;-65
2024/03/07 02:21:32;;;;;;;40.97;22.58;;;5.10;99.90;;;;;;5018609;28;20041;-65
2024/03/07 02:23:58;;;;;;;41.78;23.98;;;5.10;99.90;;;;;;5025109;28;20057;-64
2024/03/07 02:26:24;;;;;;;39.17;22.33;;;5.10;99.90;;;;;;5007753;28;20482;-64
2024/03/07 02:28:50;;;;;;;38.72;21.80;;;5.00;99.90;;;;;;5007386;28;20091;-67
2024/03/07 02:31:15;;;;;;;39.25;22.90;;;5.00;99.90;;;;;;5029758;28;20087;-63
2024/03/07 02:33:41;;;;;;;40.05;22.67;;;5.00;99.90;;;;;;5024753;28;20033;-64
2024/03/07 02:36:07;;;;;;;39.45;21.75;;;5.00;99.90;;;;;;5012082;28;20045;-66
2024/03/07 02:38:34;;;;;;;38.38;21.15;;;5.00;99.90;;;;;;5031130;28;20055;-65
2024/03/07 02:41:00;;;;;;;34.55;20.40;;;5.00;99.90;;;;;;5029481;28;20044;-66
2024/03/07 02:43:26;;;;;;;40.65;21.95;;;4.90;99.90;;;;;;5005250;28;20033;-64
2024/03/07 02:45:51;;;;;;;32.28;20.13;;;4.90;99.90;;;;;;5020139;28;20091;-64
2024/03/07 02:48:18;;;;;;;38.65;21.80;;;5.00;99.90;;;;;;5026678;28;20068;-65
2024/03/07 02:50:44;;;;;;;37.60;22.02;;;5.00;99.90;;;;;;5019298;28;20544;-63
2024/03/07 02:53:09;;;;;;;35.55;20.90;;;4.90;99.90;;;;;;5018348;28;20042;-66
2024/03/07 02:55:35;;;;;;;38.13;22.20;;;4.90;99.90;;;;;;5023642;28;20402;-64
2024/03/07 02:58:00;;;;;;;38.22;20.52;;;4.90;99.90;;;;;;5003911;28;20494;-66
2024/03/07 03:00:26;;;;;;;40.22;21.20;;;4.90;99.90;;;;;;5011638;28;20049;-63
2024/03/07 03:02:52;;;;;;;34.85;20.35;;;4.90;99.90;;;;;;5024715;28;20045;-63
2024/03/07 03:05:18;;;;;;;38.60;20.73;;;4.80;99.90;;;;;;5003828;28;20040;-65
2024/03/07 03:07:52;;;;;;;37.03;21.65;;;4.80;99.90;;;;;;5007490;28;20084;-65
2024/03/07 03:10:28;;;;;;;34.35;20.42;;;4.80;99.90;;;;;;5029447;28;20049;-65
2024/03/07 03:12:57;;;;;;;35.40;20.63;;;4.80;99.90;;;;;;5029477;28;20048;-65
2024/03/07 03:15:23;;;;;;;33.60;20.83;;;4.70;99.90;;;;;;5014568;28;20030;-65
2024/03/07 03:17:49;;;;;;;35.33;20.83;;;4.70;99.90;;;;;;5029717;28;20505;-65
2024/03/07 03:20:24;;;;;;;34.03;20.98;;;4.70;99.90;;;;;;5029589;28;20046;-65
2024/03/07 03:22:52;;;;;;;37.65;21.38;;;4.70;99.90;;;;;;5022793;28;20046;-65
2024/03/07 03:25:18;;;;;;;35.08;20.70;;;4.70;99.90;;;;;;5026129;28;20034;-65
2024/03/07 03:27:44;;;;;;;37.30;21.33;;;4.70;99.90;;;;;;5034590;28;20425;-65
2024/03/07 03:30:13;;;;;;;36.03;19.58;;;4.70;99.90;;;;;;5029026;28;20037;-65
2024/03/07 03:32:40;;;;;;;41.28;21.73;;;4.60;99.90;;;;;;5011570;28;20044;-65
2024/03/07 03:35:06;;;;;;;33.83;20.42;;;4.90;99.90;;;;;;5029837;28;20048;-65
2024/03/07 03:37:33;;;;;;;35.33;20.13;;;4.60;99.90;;;;;;5028897;28;20464;-65
2024/03/07 03:39:58;;;;;;;33.03;20.08;;;4.60;99.90;;;;;;5009757;28;20046;-65
2024/03/07 03:42:24;;;;;;;36.85;20.63;;;4.50;99.90;;;;;;5027186;28;20053;-65
2024/03/07 03:44:50;;;;;;;32.78;20.38;;;4.50;99.90;;;;;;5025290;28;20061;-65
2024/03/07 03:47:15;;;;;;;32.63;19.10;;;4.60;99.90;;;;;;5026148;28;20037;-64
2024/03/07 03:49:41;;;;;;;33.38;20.02;;;4.50;99.90;;;;;;5006562;28;20481;-64
2024/03/07 03:52:06;;;;;;;33.17;19.20;;;4.40;99.90;;;;;;5018930;28;20050;-64
2024/03/07 03:54:32;;;;;;;37.63;20.73;;;4.40;99.90;;;;;;5026999;28;20033;-66
2024/03/07 03:56:58;;;;;;;35.97;19.73;;;4.40;99.90;;;;;;5030536;28;20034;-64
2024/03/07 03:59:24;;;;;;;32.30;19.65;;;4.40;99.90;;;;;;5014480;28;20041;-65
2024/03/07 04:01:50;;;;;;;32.85;19.30;;;4.40;99.90;;;;;;5025946;28;20057;-62
2024/03/07 04:04:15;;;;;;;35.65;19.92;;;4.40;99.90;;;;;;5011169;28;20091;-62
2024/03/07 04:06:41;;;;;;;31.98;18.73;;;4.40;99.90;;;;;;5030387;28;20116;-63
2024/03/07 04:09:07;;;;;;;34.38;18.77;;;4.40;99.90;;;;;;5006064;28;20073;-65
2024/03/07 04:11:32;;;;;;;32.53;20.02;;;4.40;99.90;;;;;;5026181;28;20037;-65
2024/03/07 04:13:58;;;;;;;35.15;19.88;;;4.40;99.90;;;;;;5003673;28;20446;-63
2024/03/07 04:16:24;;;;;;;35.17;19.63;;;4.30;99.90;;;;;;5032848;28;20072;-64
2024/03/07 04:18:49;;;;;;;32.83;19.55;;;4.30;99.90;;;;;;5027506;28;20125;-64
2024/03/07 04:21:15;;;;;;;32.95;19.85;;;4.30;99.90;;;;;;5026586;28;20041;-65
2024/03/07 04:23:41;;;;;;;34.60;20.27;;;4.30;99.90;;;;;;5010888;28;20500;-64
2024/03/07 04:26:08;;;;;;;34.63;19.55;;;4.30;99.90;;;;;;5030864;28;20073;-63
2024/03/07 04:28:34;;;;;;;34.17;19.48;;;4.30;99.90;;;;;;5013978;28;20042;-68
2024/03/07 04:31:00;;;;;;;33.85;19.90;;;4.30;99.90;;;;;;5027247;28;20050;-63
2024/03/07 04:33:26;;;;;;;32.50;20.42;;;4.40;99.90;;;;;;5032145;28;20486;-64
2024/03/07 04:35:52;;;;;;;33.78;19.52;;;4.30;99.90;;;;;;5012699;28;20534;-62
2024/03/07 04:38:18;;;;;;;35.20;20.10;;;4.20;99.90;;;;;;5030822;28;20041;-63
2024/03/07 04:40:43;;;;;;;33.50;20.45;;;4.20;99.90;;;;;;5025421;28;20037;-65
2024/03/07 04:43:09;;;;;;;36.40;20.38;;;4.20;99.90;;;;;;5024485;28;20081;-62
2024/03/07 04:45:35;;;;;;;33.92;19.88;;;4.20;99.90;;;;;;5012704;28;20449;-65
2024/03/07 04:48:00;;;;;;;34.40;19.50;;;4.20;99.90;;;;;;5009164;28;20463;-62
2024/03/07 04:50:26;;;;;;;36.78;20.48;;;4.20;99.90;;;;;;5013914;28;20041;-65
2024/03/07 04:52:52;;;;;;;36.92;20.80;;;4.10;99.90;;;;;;5013096;28;20045;-65
2024/03/07 04:55:18;;;;;;;35.55;20.95;;;4.20;99.90;;;;;;5027579;28;20045;-65
2024/03/07 04:57:44;;;;;;;33.78;18.60;;;4.10;99.90;;;;;;5009003;28;20046;-65
2024/03/07 05:00:14;;;;;;;34.85;19.75;;;4.10;99.90;;;;;;5012832;28;20047;-65
2024/03/07 05:02:41;;;;;;;37.03;20.10;;;4.10;99.90;;;;;;5022200;28;20038;-65
2024/03/07 05:05:07;;;;;;;35.60;19.38;;;4.10;99.90;;;;;;4993098;28;20049;-65
2024/03/07 05:07:35;;;;;;;34.08;19.48;;;4.10;99.90;;;;;;5008381;28;20056;-65
2024/03/07 05:10:04;;;;;;;33.00;19.27;;;4.00;99.90;;;;;;5027269;28;20048;-65
2024/03/07 05:12:31;;;;;;;34.30;20.20;;;4.00;99.90;;;;;;5031865;28;20068;-65
2024/03/07 05:14:57;;;;;;;33.78;18.52;;;4.00;99.90;;;;;;5011015;28;20060;-65
2024/03/07 05:17:22;;;;;;;34.63;19.88;;;4.20;99.90;;;;;;5025753;28;20561;-65
2024/03/07 05:19:49;;;;;;;32.78;18.63;;;3.90;99.90;;;;;;5018036;28;20110;-65
2024/03/07 05:22:20;;;;;;;33.50;19.58;;;3.90;99.90;;;;;;5022349;28;20041;-65
2024/03/07 05:24:45;;;;;;;34.92;19.70;;;4.00;99.90;;;;;;5026473;28;20034;-65
2024/03/07 05:27:11;;;;;;;33.00;19.52;;;3.90;99.90;;;;;;5027453;28;20036;-65
2024/03/07 05:29:37;;;;;;;33.55;19.92;;;3.80;99.90;;;;;;5026987;28;20032;-65
2024/03/07 05:32:23;;;;;;;32.88;19.10;;;3.90;99.90;;;;;;5025070;28;20041;-65
2024/03/07 05:34:49;;;;;;;34.75;19.85;;;3.90;99.90;;;;;;4998392;28;20744;-65
2024/03/07 05:37:14;;;;;;;38.03;20.13;;;3.80;99.90;;;;;;5030018;28;20041;-65
2024/03/07 05:39:40;;;;;;;30.90;18.58;;;3.80;99.90;;;;;;5030208;28;20048;-65
2024/03/07 05:42:07;;;;;;;33.60;19.58;;;3.80;99.90;;;;;;5025612;28;20059;-65
2024/03/07 05:44:33;;;;;;;32.28;19.02;;;3.80;99.90;;;;;;5012212;28;20037;-65
2024/03/07 05:46:58;;;;;;;32.13;19.30;;;3.70;99.90;;;;;;5026257;28;20052;-65
2024/03/07 05:49:24;;;;;;;35.10;19.35;;;3.70;99.90;;;;;;5026689;28;20403;-65
2024/03/07 05:51:50;;;;;;;35.80;19.58;;;3.70;99.90;;;;;;5021665;28;20038;-65
2024/03/07 05:54:16;;;;;;;30.95;19.00;;;3.70;99.90;;;;;;5030133;28;20045;-65
2024/03/07 05:56:41;;;;;;;33.13;18.63;;;3.60;99.90;;;;;;5030898;28;20033;-65
2024/03/07 05:59:11;;;;;;;35.10;19.45;;;3.60;99.90;;;;;;5003003;28;20678;-65
2024/03/07 06:01:37;;;;;;;32.47;18.75;;;3.60;99.90;;;;;;5023657;28;20041;-65
2024/03/07 06:04:07;;;;;;;32.53;18.73;;;3.60;99.90;;;;;;5022090;28;20494;-65
2024/03/07 06:06:34;;;;;;;32.08;18.00;;;3.50;99.90;;;;;;5025291;28;20112;-65
2024/03/07 06:09:08;;;;;;;33.08;18.48;;;3.50;99.90;;;;;;5031136;28;20038;-65
2024/03/07 06:11:37;;;;;;;35.00;20.10;;;3.50;99.90;;;;;;5019855;28;20033;-64
2024/03/07 06:14:04;;;;;;;35.58;18.50;;;3.50;99.90;;;;;;5022454;28;20098;-65
2024/03/07 06:16:38;;;;;;;30.95;18.02;;;3.50;99.90;;;;;;5025413;28;20038;-65
2024/03/07 06:19:06;;;;;;;34.05;18.00;;;3.50;99.90;;;;;;5021818;28;20039;-65
2024/03/07 06:21:33;;;;;;;31.40;18.85;;;3.50;99.90;;;;;;5007982;28;20143;-65
2024/03/07 06:24:02;;;;;;;32.67;18.85;;;3.40;99.90;;;;;;5027687;28;20450;-65
2024/03/07 06:29:07;;;;;;;33.05;18.27;;;3.40;99.90;;;;;;5021802;28;20041;-65
2024/03/07 06:31:34;;;;;;;32.78;19.00;;;3.40;99.90;;;;;;4994011;28;20519;-65
2024/03/07 06:34:00;;;;;;;31.80;19.30;;;3.40;99.90;;;;;;5025723;28;20041;-65
2024/03/07 06:36:26;;;;;;;31.15;18.33;;;3.40;99.90;;;;;;5000835;28;20421;-65
2024/03/07 06:38:51;;;;;;;33.13;18.27;;;3.40;99.90;;;;;;5025219;28;20524;-65
2024/03/07 06:41:17;;;;;;;34.45;18.27;;;3.30;99.90;;;;;;5020025;28;20124;-65
2024/03/07 06:43:46;;;;;;;32.60;18.33;;;3.30;99.90;;;;;;5028215;28;20112;-65
2024/03/07 06:46:12;;;;;;;30.40;16.67;;;3.30;99.90;;;;;;5024378;28;20040;-65
2024/03/07 06:48:41;;;;;;;34.08;18.48;;;3.30;99.90;;;;;;5030307;28;20037;-65
2024/03/07 06:51:07;;;;;;;30.55;18.45;;;3.30;99.90;;;;;;5017480;28;20124;-65
2024/03/07 06:53:33;;;;;;;33.90;18.90;;;3.30;99.90;;;;;;5011668;28;20033;-65
2024/03/07 06:55:59;;;;;;;31.38;17.90;;;3.30;99.90;;;;;;5004103;28;20057;-65
2024/03/07 06:58:26;;;;;;;33.20;18.35;;;3.30;99.90;;;;;;5029845;28;20571;-65
2024/03/07 07:00:54;;;;;;;31.92;17.52;;;3.30;99.90;;;;;;5007060;28;20042;-65
2024/03/07 07:03:23;;;;;;;30.17;17.60;;;3.30;99.90;;;;;;5035025;28;20375;-65
2024/03/07 07:05:50;;;;;;;28.75;16.88;;;3.30;99.90;;;;;;5028686;28;20822;-65
2024/03/07 07:08:16;;;;;;;28.48;17.83;;;3.30;99.90;;;;;;5023470;28;20080;-65
2024/03/07 07:10:42;;;;;;;33.30;18.10;;;3.30;99.90;;;;;;5026831;28;20041;-65
2024/03/07 07:13:10;;;;;;;32.47;18.58;;;3.30;99.90;;;;;;5021758;28;20049;-65
2024/03/07 07:15:36;;;;;;;30.67;17.35;;;3.30;99.90;;;;;;5025979;28;20112;-65
2024/03/07 07:18:03;;;;;;;27.73;17.23;;;3.40;99.90;;;;;;5015255;28;20037;-65
2024/03/07 07:20:28;;;;;;;32.28;17.98;;;3.40;99.90;;;;;;5032714;28;20100;-65
2024/03/07 07:22:57;;;;;;;30.00;18.52;;;3.40;99.90;;;;;;5028674;28;20121;-65
2024/03/07 07:25:24;;;;;;;30.35;17.63;;;3.40;99.90;;;;;;5026337;28;20069;-65
2024/03/07 07:27:54;;;;;;;31.20;17.98;;;3.40;99.90;;;;;;5027170;28;20036;-65
2024/03/07 07:30:22;;;;;;;29.38;17.00;;;3.40;99.90;;;;;;5028332;28;20037;-65
2024/03/07 07:32:48;;;;;;;30.67;18.38;;;3.40;99.90;;;;;;5009254;28;20637;-65
2024/03/07 07:35:15;;;;;;;28.58;17.85;;;3.40;99.90;;;;;;5027447;28;20036;-65
2024/03/07 07:37:42;;;;;;;27.95;17.80;;;3.40;99.90;;;;;;5005775;28;20572;-65
2024/03/07 07:40:08;;;;;;;29.48;18.05;;;3.40;99.90;;;;;;5004134;28;20050;-65
2024/03/07 07:42:38;;;;;;;29.92;18.15;;;3.50;99.90;;;;;;5026339;28;20042;-65
2024/03/07 07:45:10;;;;;;;30.08;17.75;;;3.60;99.90;;;;;;5029950;28;20383;-65
2024/03/07 07:47:40;;;;;;;33.55;18.13;;;3.60;99.90;;;;;;5023600;28;20069;-65
2024/03/07 07:50:12;;;;;;;28.73;17.88;;;3.50;99.90;;;;;;5020087;28;20041;-65
2024/03/07 07:52:56;;;;;;;28.13;16.95;;;3.60;99.90;;;;;;5028820;28;20033;-65
2024/03/07 07:55:23;;;;;;;30.48;18.52;;;3.60;99.90;;;;;;5031846;28;20033;-65
2024/03/07 07:57:53;;;;;;;31.65;18.05;;;3.60;99.90;;;;;;5029071;28;20056;-65
2024/03/07 08:00:21;;;;;;;32.67;19.15;;;3.70;99.90;;;;;;5029385;28;20040;-65
2024/03/07 08:03:04;;;;;;;28.67;17.40;;;3.70;99.90;;;;;;5022441;28;20099;-65
2024/03/07 08:05:35;;;;;;;32.10;18.38;;;3.80;99.90;;;;;;5025659;28;20406;-65
2024/03/07 08:08:07;;;;;;;31.90;18.97;;;3.80;99.90;;;;;;5024634;28;20045;-65
2024/03/07 08:10:36;;;;;;;33.22;18.60;;;3.70;99.90;;;;;;5008229;28;20414;-65
2024/03/07 08:13:02;;;;;;;31.50;18.85;;;3.80;99.90;;;;;;5024726;28;20121;-65
2024/03/07 08:15:30;;;;;;;31.05;19.05;;;3.80;99.90;;;;;;5027073;28;20046;-64
2024/03/07 08:17:56;;;;;;;31.63;18.63;;;3.80;99.90;;;;;;5025597;28;20399;-65
2024/03/07 08:20:25;;;;;;;33.67;19.08;;;4.10;99.90;;;;;;5026635;28;20030;-65
2024/03/07 08:22:52;;;;;;;33.67;18.90;;;3.90;99.90;;;;;;5029922;28;20037;-65
2024/03/07 08:25:20;;;;;;;32.50;19.58;;;4.00;99.90;;;;;;5028411;28;20037;-65
2024/03/07 08:27:48;;;;;;;31.92;20.13;;;4.10;99.90;;;;;;5006071;28;20046;-65
2024/03/07 08:30:14;;;;;;;34.88;19.50;;;4.10;99.90;;;;;;5003893;28;20491;-65
2024/03/07 08:32:49;;;;;;;33.53;19.63;;;4.10;99.90;;;;;;5015238;28;20038;-65
2024/03/07 08:35:16;;;;;;;29.35;18.90;;;4.20;99.90;;;;;;5025582;28;20121;-65
2024/03/07 08:37:44;;;;;;;31.75;19.17;;;4.20;99.90;;;;;;5015086;28;20411;-65
2024/03/07 08:40:11;;;;;;;33.40;19.58;;;4.20;99.90;;;;;;5022888;28;20038;-65
2024/03/07 08:42:41;;;;;;;32.70;19.98;;;4.20;99.90;;;;;;5032837;28;20050;-64
2024/03/07 08:45:10;;;;;;;34.90;20.95;;;4.20;99.90;;;;;;5005978;28;20073;-65
2024/03/07 08:47:36;;;;;;;35.00;20.50;;;4.30;99.90;;;;;;5029431;28;20041;-65
2024/03/07 08:50:08;;;;;;;36.35;20.70;;;4.30;99.90;;;;;;5020718;28;20085;-65
2024/03/07 08:52:38;;;;;;;34.20;20.15;;;4.30;99.90;;;;;;5006650;28;20482;-65
2024/03/07 08:55:04;;;;;;;32.55;20.75;;;4.30;99.90;;;;;;5027039;28;20041;-65
2024/03/07 08:57:30;;;;;;;35.85;21.50;;;4.40;99.90;;;;;;5031792;28;20041;-65
2024/03/07 08:59:56;;;;;;;36.50;21.63;;;4.40;99.90;;;;;;5025832;28;20042;-65
2024/03/07 09:02:22;;;;;;;33.88;21.63;;;4.50;99.90;;;;;;5028819;28;20038;-65
2024/03/07 09:04:48;;;;;;;39.35;22.20;;;4.50;99.90;;;;;;5026199;28;20114;-65
2024/03/07 09:07:14;;;;;;;37.00;23.08;;;4.60;99.90;;;;;;5012646;28;20041;-65
2024/03/07 09:09:43;;;;;;;36.38;22.50;;;4.70;99.90;;;;;;5028938;28;20871;-65
2024/03/07 09:12:09;;;;;;;37.33;22.95;;;4.70;99.90;;;;;;5029966;28;20424;-65
2024/03/07 09:14:35;;;;;;;39.17;23.50;;;4.70;99.90;;;;;;5031927;28;20034;-65
2024/03/07 09:17:01;;;;;;;41.28;23.42;;;4.80;99.90;;;;;;5030842;28;20111;-65
2024/03/07 09:19:28;;;;;;;38.72;23.92;;;4.80;99.90;;;;;;5026531;28;20199;-65
2024/03/07 09:21:54;;;;;;;40.28;23.88;;;4.80;99.90;;;;;;5012484;28;20053;-65
2024/03/07 09:24:23;;;;;;;42.08;24.98;;;4.80;99.90;;;;;;5004005;28;20042;-65
2024/03/07 09:26:49;;;;;;;44.05;25.63;;;4.90;99.90;;;;;;5027482;28;20107;-65
2024/03/07 09:29:17;;;;;;;41.63;25.02;;;5.00;99.90;;;;;;5023960;28;20844;-65
2024/03/07 09:31:43;;;;;;;37.35;23.92;;;5.00;99.90;;;;;;5013258;28;20593;-65
2024/03/07 09:34:09;;;;;;;40.05;23.65;;;5.00;99.90;;;;;;5031503;28;20029;-65
2024/03/07 09:36:35;;;;;;;38.10;22.75;;;5.00;99.90;;;;;;5009231;28;20540;-65
2024/03/07 09:39:00;;;;;;;39.10;23.45;;;5.10;99.90;;;;;;5029017;28;20029;-65
2024/03/07 09:41:26;;;;;;;41.88;24.45;;;5.10;99.90;;;;;;5021080;28;20043;-65
2024/03/07 09:43:55;;;;;;;37.15;22.55;;;5.10;99.90;;;;;;5009465;28;20450;-65
2024/03/07 09:46:23;;;;;;;38.05;22.20;;;5.10;99.90;;;;;;5017171;28;20033;-65
2024/03/07 09:48:54;;;;;;;37.45;21.77;;;5.10;99.90;;;;;;5008080;28;20088;-65
2024/03/07 09:51:20;;;;;;;43.03;23.83;;;5.10;99.90;;;;;;5020409;28;20449;-65
2024/03/07 09:53:51;;;;;;;40.72;24.85;;;5.10;99.90;;;;;;5026604;28;20583;-65
2024/03/07 09:56:21;;;;;;;41.45;23.85;;;5.10;99.90;;;;;;5029281;28;20394;-65
2024/03/07 09:58:52;;;;;;;44.80;24.23;;;5.10;99.90;;;;;;5044500;23;20533;-77
2024/03/07 10:01:21;;;;;;;38.28;23.08;;;5.10;99.90;;;;;;5034248;28;20398;-76
2024/03/07 10:03:48;;;;;;;41.88;23.90;;;5.20;99.90;;;;;;5017648;28;20037;-76
2024/03/07 10:06:14;;;;;;;41.42;23.85;;;5.20;99.90;;;;;;5033708;28;20518;-76
2024/03/07 10:08:43;;;;;;;39.13;22.60;;;5.20;99.90;;;;;;5030163;28;20040;-76
2024/03/07 10:11:09;;;;;;;40.53;24.00;;;5.20;99.90;;;;;;5019234;28;20045;-76
2024/03/07 10:13:35;;;;;;;40.35;24.40;;;5.20;99.90;;;;;;5029475;28;20036;-76
2024/03/07 10:16:01;;;;;;;40.85;24.42;;;6.10;99.90;;;;;;5053378;28;20121;-76
2024/03/07 10:18:29;;;;;;;44.38;24.77;;;5.30;99.90;;;;;;5018275;28;20047;-75
2024/03/07 10:20:55;;;;;;;43.00;24.42;;;5.30;99.90;;;;;;5018047;28;20103;-76
2024/03/07 10:23:22;;;;;;;37.80;21.15;;;5.90;99.90;;;;;;5033340;28;20075;-76
2024/03/07 10:25:49;;;;;;;40.10;22.08;;;5.40;99.90;;;;;;5034368;28;20394;-76
2024/03/07 10:28:20;;;;;;;37.22;20.35;;;5.50;99.90;;;;;;5032614;28;20044;-76
2024/03/07 10:30:47;;;;;;;35.97;21.15;;;5.50;99.90;;;;;;5011279;28;20129;-76
2024/03/07 10:33:16;;;;;;;37.13;21.13;;;5.50;99.90;;;;;;5014839;28;20128;-76
2024/03/07 10:35:42;;;;;;;40.83;21.75;;;5.60;99.90;;;;;;5034276;28;20506;-76
2024/03/07 10:38:11;;;;;;;35.80;21.10;;;5.80;99.90;;;;;;5033823;28;20088;-76
2024/03/07 10:40:40;;;;;;;36.70;20.70;;;5.80;99.90;;;;;;5013262;28;20091;-76
2024/03/07 10:43:11;;;;;;;37.53;20.55;;;5.90;99.90;;;;;;5017218;28;20072;-76
2024/03/07 10:45:46;;;;;;;34.42;19.85;;;6.00;99.90;;;;;;5017730;28;20041;-76
2024/03/07 10:48:13;;;;;;;35.13;20.63;;;6.10;99.90;;;;;;5013300;28;20041;-77
2024/03/07 10:50:43;;;;;;;35.70;20.67;;;6.70;99.90;;;;;;5052391;28;20403;-77
2024/03/07 10:53:31;;;;;;;38.47;20.63;;;6.80;99.90;;;;;;5052030;28;20041;-76
2024/03/07 10:56:03;;;;;;;34.40;19.08;;;6.20;99.90;;;;;;5026057;28;20041;-76
2024/03/07 10:59:00;;;;;;;34.58;19.70;;;6.30;99.90;;;;;;5047990;28;20448;-76
2024/03/07 11:01:29;;;;;;;31.30;19.05;;;6.50;99.90;;;;;;5032269;28;20115;-76
2024/03/07 11:03:57;;;;;;;36.00;19.98;;;7.00;99.90;;;;;;5032529;28;20037;-76
2024/03/07 11:06:25;;;;;;;35.92;20.48;;;7.70;99.90;;;;;;5027823;28;20542;-76
2024/03/07 11:08:52;;;;;;;33.33;19.80;;;8.00;99.90;;;;;;5015834;28;20033;-76
2024/03/07 11:11:18;;;;;;;36.55;20.08;;;7.20;99.90;;;;;;5030358;28;20384;-76
2024/03/07 11:13:46;;;;;;;35.63;20.10;;;7.80;99.90;;;;;;5052224;28;20063;-76
2024/03/07 11:16:14;;;;;;;35.67;19.80;;;6.80;99.90;;;;;;5044265;28;20107;-76
2024/03/07 11:18:40;;;;;;;35.45;20.85;;;7.80;99.90;;;;;;5050771;28;20037;-76
2024/03/07 11:21:41;;;;;;;35.20;21.15;;;7.80;99.90;;;;;;5050964;28;20044;-77
2024/03/07 11:24:23;;;;;;;32.80;19.77;;;6.90;99.90;;;;;;5050744;28;20032;-76
2024/03/07 11:26:52;;;;;;;34.08;20.75;;;6.90;99.90;;;;;;5033480;28;20071;-77
2024/03/07 11:29:43;;;;;;;34.40;19.88;;;7.30;99.90;;;;;;5034679;28;20037;-77
2024/03/07 11:32:15;;;;;;;35.80;20.27;;;6.90;99.90;;;;;;5052197;28;20033;-76
2024/03/07 11:34:47;;;;;;;34.00;20.58;;;8.20;99.90;;;;;;5033728;28;20426;-76
2024/03/07 11:37:40;;;;;;;34.13;20.30;;;7.00;99.90;;;;;;5035917;28;20040;-76
2024/03/07 11:40:08;;;;;;;35.63;21.25;;;7.30;99.90;;;;;;5047793;28;20041;-76
2024/03/07 11:42:35;;;;;;;36.10;20.23;;;7.30;99.90;;;;;;5033225;28;20097;-76
2024/03/07 11:45:05;;;;;;;32.65;19.88;;;7.40;99.90;;;;;;5026151;28;20076;-76
2024/03/07 11:47:38;;;;;;;35.22;20.42;;;7.50;99.90;;;;;;5015236;28;20562;-76
2024/03/07 11:50:11;;;;;;;33.33;19.67;;;7.60;99.90;;;;;;5027155;28;20039;-76
2024/03/07 11:52:41;;;;;;;31.42;19.33;;;7.70;99.90;;;;;;5043405;28;20037;-76
2024/03/07 11:55:10;;;;;;;31.35;19.40;;;9.00;99.90;;;;;;5030991;28;20112;-76
2024/03/07 11:57:37;;;;;;;34.03;20.23;;;7.80;99.90;;;;;;5046711;28;20051;-76
2024/03/07 12:00:10;;;;;;;29.83;18.50;;;7.70;99.90;;;;;;5026997;28;20413;-76
2024/03/07 12:02:38;;;;;;;33.13;19.38;;;7.70;99.90;;;;;;5031111;28;20498;-76
2024/03/07 12:05:07;;;;;;;31.20;18.17;;;7.70;99.90;;;;;;5029822;28;20041;-76
2024/03/07 12:07:34;;;;;;;31.45;18.77;;;7.70;99.90;;;;;;5014550;28;20033;-76
2024/03/07 12:10:03;;;;;;;30.52;19.27;;;7.70;99.90;;;;;;5005867;28;20041;-76
2024/03/07 12:12:32;;;;;;;33.42;18.58;;;7.60;99.90;;;;;;5005508;28;20487;-76
2024/03/07 12:14:59;;;;;;;29.23;17.85;;;7.60;99.90;;;;;;5050997;28;20624;-76
2024/03/07 12:17:25;;;;;;;31.15;17.90;;;7.60;99.90;;;;;;5054394;28;20048;-76
2024/03/07 12:19:51;;;;;;;32.22;19.02;;;7.50;99.90;;;;;;5053773;28;20037;-76
2024/03/07 12:22:22;;;;;;;32.22;18.80;;;7.50;99.90;;;;;;5035650;28;20033;-76
2024/03/07 12:25:02;;;;;;;30.15;18.38;;;7.50;99.90;;;;;;5029723;28;20033;-76
2024/03/07 12:27:29;;;;;;;31.02;18.10;;;7.40;99.90;;;;;;5028513;28;20120;-76
2024/03/07 12:29:56;;;;;;;32.40;19.08;;;7.40;99.90;;;;;;5013304;28;20132;-77
2024/03/07 12:32:24;;;;;;;29.55;17.88;;;7.40;99.90;;;;;;5029328;28;20037;-77
2024/03/07 12:34:52;;;;;;;32.63;18.55;;;7.30;99.90;;;;;;5019469;28;20045;-77
2024/03/07 12:37:26;;;;;;;33.35;19.92;;;7.20;99.90;;;;;;5002795;28;20411;-77
2024/03/07 12:40:00;;;;;;;31.20;18.17;;;7.20;99.90;;;;;;5028507;28;20411;-76
2024/03/07 12:42:31;;;;;;;32.05;18.88;;;8.40;99.90;;;;;;5029341;28;20032;-77